Harare, Zimbabwe
Current Conditions -  °F | °C
As of 1:00 PM on Friday 28 Nov 2014 (Local Time) from FVHA Reporting Station
Clear Clear  
Wind Chill: 20°   Ceiling: Unl
Heat Index: 20°   Visibility: 6mi
Dew Point: 11°   Wind: 6mph
Humidity: 56%   Direction: 20°NNE
Pressure: 30.09"   Gusts: NA
Location:  17.82°S, 31.05°E
Report Text: FVHA 281100Z 02005KT CAVOK 20/11 Q1019 NOSIG
Loading
Personal Weather Stations






























Interactive Weather Map New forecast layout! Learn more

10-Day Weather Forecast

Advertisements
Track Severe Weather on mobile